sensor_id;sensor_type;location;lat;lon;timestamp;temperature;humidity
76239;SHT30;65043;48.392;-4.472;2022-11-15T00:01:37;14.62;85.42
76239;SHT30;65043;48.392;-4.472;2022-11-15T00:04:04;14.65;85.51
76239;SHT30;65043;48.392;-4.472;2022-11-15T00:06:30;14.65;85.49
76239;SHT30;65043;48.392;-4.472;2022-11-15T00:08:58;14.62;85.48
76239;SHT30;65043;48.392;-4.472;2022-11-15T00:11:23;14.60;85.84
76239;SHT30;65043;48.392;-4.472;2022-11-15T00:13:49;14.60;85.73
76239;SHT30;65043;48.392;-4.472;2022-11-15T00:16:14;14.58;85.78
76239;SHT30;65043;48.392;-4.472;2022-11-15T00:18:40;14.63;85.64
76239;SHT30;65043;48.392;-4.472;2022-11-15T00:21:10;14.65;85.65
76239;SHT30;65043;48.392;-4.472;2022-11-15T00:23:36;14.62;85.60
76239;SHT30;65043;48.392;-4.472;2022-11-15T00:26:02;14.66;85.64
76239;SHT30;65043;48.392;-4.472;2022-11-15T00:28:28;14.65;85.86
76239;SHT30;65043;48.392;-4.472;2022-11-15T00:30:59;14.63;85.94
76239;SHT30;65043;48.392;-4.472;2022-11-15T00:33:25;14.68;86.04
76239;SHT30;65043;48.392;-4.472;2022-11-15T00:35:51;14.66;86.05
76239;SHT30;65043;48.392;-4.472;2022-11-15T00:38:16;14.65;86.01
76239;SHT30;65043;48.392;-4.472;2022-11-15T00:40:41;14.68;86.09
76239;SHT30;65043;48.392;-4.472;2022-11-15T00:43:07;14.68;86.36
76239;SHT30;65043;48.392;-4.472;2022-11-15T00:45:32;14.68;86.31
76239;SHT30;65043;48.392;-4.472;2022-11-15T00:47:57;14.70;86.09
76239;SHT30;65043;48.392;-4.472;2022-11-15T00:50:23;14.70;86.41
76239;SHT30;65043;48.392;-4.472;2022-11-15T00:52:48;14.72;86.52
76239;SHT30;65043;48.392;-4.472;2022-11-15T00:55:15;14.73;86.25
76239;SHT30;65043;48.392;-4.472;2022-11-15T00:57:41;14.73;86.59
76239;SHT30;65043;48.392;-4.472;2022-11-15T01:00:07;14.73;86.66
76239;SHT30;65043;48.392;-4.472;2022-11-15T01:02:33;14.72;86.52
76239;SHT30;65043;48.392;-4.472;2022-11-15T01:04:59;14.73;86.48
76239;SHT30;65043;48.392;-4.472;2022-11-15T01:07:24;14.75;86.25
76239;SHT30;65043;48.392;-4.472;2022-11-15T01:09:50;14.75;86.26
76239;SHT30;65043;48.392;-4.472;2022-11-15T01:12:15;14.75;86.66
76239;SHT30;65043;48.392;-4.472;2022-11-15T01:14:40;14.76;86.52
76239;SHT30;65043;48.392;-4.472;2022-11-15T01:17:06;14.77;86.47
76239;SHT30;65043;48.392;-4.472;2022-11-15T01:19:31;14.75;86.31
76239;SHT30;65043;48.392;-4.472;2022-11-15T01:21:57;14.77;86.44
76239;SHT30;65043;48.392;-4.472;2022-11-15T01:24:22;14.76;86.16
76239;SHT30;65043;48.392;-4.472;2022-11-15T01:26:47;14.75;86.35
76239;SHT30;65043;48.392;-4.472;2022-11-15T01:29:13;14.73;86.01
76239;SHT30;65043;48.392;-4.472;2022-11-15T01:31:38;14.75;86.41
76239;SHT30;65043;48.392;-4.472;2022-11-15T01:34:04;14.76;86.43
76239;SHT30;65043;48.392;-4.472;2022-11-15T01:36:29;14.72;86.25
76239;SHT30;65043;48.392;-4.472;2022-11-15T01:38:56;14.75;86.24
76239;SHT30;65043;48.392;-4.472;2022-11-15T01:41:25;14.72;86.33
76239;SHT30;65043;48.392;-4.472;2022-11-15T01:43:57;14.73;86.41
76239;SHT30;65043;48.392;-4.472;2022-11-15T01:46:35;14.73;86.38
76239;SHT30;65043;48.392;-4.472;2022-11-15T01:49:08;14.73;86.42
76239;SHT30;65043;48.392;-4.472;2022-11-15T01:51:36;14.73;86.56
76239;SHT30;65043;48.392;-4.472;2022-11-15T01:54:08;14.75;86.48
76239;SHT30;65043;48.392;-4.472;2022-11-15T01:56:43;14.75;86.35
76239;SHT30;65043;48.392;-4.472;2022-11-15T01:59:11;14.75;86.42
76239;SHT30;65043;48.392;-4.472;2022-11-15T02:01:37;14.76;86.51
76239;SHT30;65043;48.392;-4.472;2022-11-15T02:06:49;14.76;86.71
76239;SHT30;65043;48.392;-4.472;2022-11-15T02:09:15;14.76;86.72
76239;SHT30;65043;48.392;-4.472;2022-11-15T02:11:41;14.76;86.57
76239;SHT30;65043;48.392;-4.472;2022-11-15T02:14:07;14.76;86.65
76239;SHT30;65043;48.392;-4.472;2022-11-15T02:30:45;14.77;87.23
76239;SHT30;65043;48.392;-4.472;2022-11-15T02:41:08;14.76;87.30
76239;SHT30;65043;48.392;-4.472;2022-11-15T02:43:47;14.77;87.04
76239;SHT30;65043;48.392;-4.472;2022-11-15T02:49:19;14.86;87.06
76239;SHT30;65043;48.392;-4.472;2022-11-15T02:51:47;14.84;86.91
76239;SHT30;65043;48.392;-4.472;2022-11-15T02:54:22;14.84;86.73
76239;SHT30;65043;48.392;-4.472;2022-11-15T02:56:49;14.87;86.94
76239;SHT30;65043;48.392;-4.472;2022-11-15T03:08:00;14.93;87.16
76239;SHT30;65043;48.392;-4.472;2022-11-15T03:16:19;14.97;87.09
76239;SHT30;65043;48.392;-4.472;2022-11-15T03:18:56;15.01;86.97
76239;SHT30;65043;48.392;-4.472;2022-11-15T03:21:24;15.04;86.95
76239;SHT30;65043;48.392;-4.472;2022-11-15T03:23:51;15.06;87.36
76239;SHT30;65043;48.392;-4.472;2022-11-15T03:26:19;15.04;87.18
76239;SHT30;65043;48.392;-4.472;2022-11-15T03:28:55;15.04;87.08
76239;SHT30;65043;48.392;-4.472;2022-11-15T03:31:23;15.04;87.17
76239;SHT30;65043;48.392;-4.472;2022-11-15T03:37:10;15.03;87.33
76239;SHT30;65043;48.392;-4.472;2022-11-15T03:39:38;15.04;87.06
76239;SHT30;65043;48.392;-4.472;2022-11-15T03:45:10;15.00;87.27
76239;SHT30;65043;48.392;-4.472;2022-11-15T03:47:49;15.00;87.26
76239;SHT30;65043;48.392;-4.472;2022-11-15T03:50:20;15.01;87.15
76239;SHT30;65043;48.392;-4.472;2022-11-15T03:52:48;14.99;87.50
76239;SHT30;65043;48.392;-4.472;2022-11-15T03:55:18;14.99;87.36
76239;SHT30;65043;48.392;-4.472;2022-11-15T03:57:44;15.00;87.60
76239;SHT30;65043;48.392;-4.472;2022-11-15T04:00:10;14.96;87.77
76239;SHT30;65043;48.392;-4.472;2022-11-15T04:02:36;14.97;88.07
76239;SHT30;65043;48.392;-4.472;2022-11-15T04:05:02;14.99;87.78
76239;SHT30;65043;48.392;-4.472;2022-11-15T04:07:27;15.01;87.94
76239;SHT30;65043;48.392;-4.472;2022-11-15T04:09:52;15.01;87.99
76239;SHT30;65043;48.392;-4.472;2022-11-15T04:12:27;14.99;87.86
76239;SHT30;65043;48.392;-4.472;2022-11-15T04:15:07;15.01;87.84
76239;SHT30;65043;48.392;-4.472;2022-11-15T04:17:54;15.04;87.83
76239;SHT30;65043;48.392;-4.472;2022-11-15T04:20:23;15.03;87.91
76239;SHT30;65043;48.392;-4.472;2022-11-15T04:23:19;15.07;87.75
76239;SHT30;65043;48.392;-4.472;2022-11-15T04:26:08;15.07;87.93
76239;SHT30;65043;48.392;-4.472;2022-11-15T04:28:35;15.06;88.00
76239;SHT30;65043;48.392;-4.472;2022-11-15T04:31:21;15.10;87.98
76239;SHT30;65043;48.392;-4.472;2022-11-15T04:33:46;15.10;88.02
76239;SHT30;65043;48.392;-4.472;2022-11-15T04:36:12;15.08;88.03
76239;SHT30;65043;48.392;-4.472;2022-11-15T04:38:56;15.12;87.91
76239;SHT30;65043;48.392;-4.472;2022-11-15T04:41:22;15.11;87.96
76239;SHT30;65043;48.392;-4.472;2022-11-15T04:43:47;15.10;87.90
76239;SHT30;65043;48.392;-4.472;2022-11-15T04:46:12;15.10;87.82
76239;SHT30;65043;48.392;-4.472;2022-11-15T04:48:38;15.18;87.43
76239;SHT30;65043;48.392;-4.472;2022-11-15T04:51:04;15.26;86.71
76239;SHT30;65043;48.392;-4.472;2022-11-15T04:53:29;15.27;86.09
76239;SHT30;65043;48.392;-4.472;2022-11-15T04:55:54;15.31;85.79
76239;SHT30;65043;48.392;-4.472;2022-11-15T04:58:20;15.35;85.69
76239;SHT30;65043;48.392;-4.472;2022-11-15T05:00:45;15.34;85.57
76239;SHT30;65043;48.392;-4.472;2022-11-15T05:03:11;15.34;85.71
76239;SHT30;65043;48.392;-4.472;2022-11-15T05:05:54;15.38;85.81
76239;SHT30;65043;48.392;-4.472;2022-11-15T05:08:20;15.41;85.73
76239;SHT30;65043;48.392;-4.472;2022-11-15T05:10:47;15.42;85.74
76239;SHT30;65043;48.392;-4.472;2022-11-15T05:13:12;15.44;85.63
76239;SHT30;65043;48.392;-4.472;2022-11-15T05:15:38;15.40;84.03
76239;SHT30;65043;48.392;-4.472;2022-11-15T05:18:03;15.32;83.51
76239;SHT30;65043;48.392;-4.472;2022-11-15T05:20:35;15.27;82.46
76239;SHT30;65043;48.392;-4.472;2022-11-15T05:23:00;15.18;81.99
76239;SHT30;65043;48.392;-4.472;2022-11-15T05:25:26;15.11;81.35
76239;SHT30;65043;48.392;-4.472;2022-11-15T05:27:51;15.03;80.88
76239;SHT30;65043;48.392;-4.472;2022-11-15T05:30:17;14.99;81.12
76239;SHT30;65043;48.392;-4.472;2022-11-15T05:32:43;14.91;81.42
76239;SHT30;65043;48.392;-4.472;2022-11-15T05:37:56;14.81;81.91
76239;SHT30;65043;48.392;-4.472;2022-11-15T05:40:22;14.77;81.78
76239;SHT30;65043;48.392;-4.472;2022-11-15T05:42:48;14.63;79.81
76239;SHT30;65043;48.392;-4.472;2022-11-15T05:45:14;14.58;80.04
76239;SHT30;65043;48.392;-4.472;2022-11-15T05:47:40;14.52;80.02
76239;SHT30;65043;48.392;-4.472;2022-11-15T05:50:07;14.49;79.98
76239;SHT30;65043;48.392;-4.472;2022-11-15T05:52:35;14.39;79.65
76239;SHT30;65043;48.392;-4.472;2022-11-15T05:55:02;14.32;79.93
76239;SHT30;65043;48.392;-4.472;2022-11-15T05:57:29;14.32;80.09
76239;SHT30;65043;48.392;-4.472;2022-11-15T05:59:54;14.31;80.25
76239;SHT30;65043;48.392;-4.472;2022-11-15T06:02:20;14.32;80.66
76239;SHT30;65043;48.392;-4.472;2022-11-15T06:04:48;14.36;80.59
76239;SHT30;65043;48.392;-4.472;2022-11-15T06:07:13;14.38;80.56
76239;SHT30;65043;48.392;-4.472;2022-11-15T06:09:39;14.32;80.61
76239;SHT30;65043;48.392;-4.472;2022-11-15T06:12:04;14.32;80.83
76239;SHT30;65043;48.392;-4.472;2022-11-15T06:14:30;14.35;80.87
76239;SHT30;65043;48.392;-4.472;2022-11-15T06:16:55;14.33;80.79
76239;SHT30;65043;48.392;-4.472;2022-11-15T06:19:21;14.35;81.04
76239;SHT30;65043;48.392;-4.472;2022-11-15T06:21:46;14.35;81.04
76239;SHT30;65043;48.392;-4.472;2022-11-15T06:24:11;14.39;80.96
76239;SHT30;65043;48.392;-4.472;2022-11-15T06:26:37;14.38;80.97
76239;SHT30;65043;48.392;-4.472;2022-11-15T06:29:03;14.38;80.85
76239;SHT30;65043;48.392;-4.472;2022-11-15T06:31:29;14.41;80.89
76239;SHT30;65043;48.392;-4.472;2022-11-15T06:33:55;14.42;80.68
76239;SHT30;65043;48.392;-4.472;2022-11-15T06:36:21;14.43;80.13
76239;SHT30;65043;48.392;-4.472;2022-11-15T06:38:46;14.43;79.84
76239;SHT30;65043;48.392;-4.472;2022-11-15T06:41:13;14.46;79.80
76239;SHT30;65043;48.392;-4.472;2022-11-15T06:43:39;14.48;79.56
76239;SHT30;65043;48.392;-4.472;2022-11-15T06:46:05;14.48;79.43
76239;SHT30;65043;48.392;-4.472;2022-11-15T06:48:32;14.45;79.83
76239;SHT30;65043;48.392;-4.472;2022-11-15T06:51:00;14.45;79.72
76239;SHT30;65043;48.392;-4.472;2022-11-15T06:53:26;14.46;79.72
76239;SHT30;65043;48.392;-4.472;2022-11-15T06:55:52;14.48;79.64
76239;SHT30;65043;48.392;-4.472;2022-11-15T06:58:18;14.49;79.44
76239;SHT30;65043;48.392;-4.472;2022-11-15T07:00:44;14.46;79.04
76239;SHT30;65043;48.392;-4.472;2022-11-15T07:03:09;14.43;79.51
76239;SHT30;65043;48.392;-4.472;2022-11-15T07:05:35;14.43;79.44
76239;SHT30;65043;48.392;-4.472;2022-11-15T07:08:02;14.46;79.64
76239;SHT30;65043;48.392;-4.472;2022-11-15T07:10:27;14.43;79.54
76239;SHT30;65043;48.392;-4.472;2022-11-15T07:12:54;14.46;79.64
76239;SHT30;65043;48.392;-4.472;2022-11-15T07:15:23;14.48;79.78
76239;SHT30;65043;48.392;-4.472;2022-11-15T07:17:49;14.45;79.82
76239;SHT30;65043;48.392;-4.472;2022-11-15T07:20:15;14.45;79.66
76239;SHT30;65043;48.392;-4.472;2022-11-15T07:22:41;14.48;79.62
76239;SHT30;65043;48.392;-4.472;2022-11-15T07:25:07;14.50;79.76
76239;SHT30;65043;48.392;-4.472;2022-11-15T07:27:32;14.52;79.71
76239;SHT30;65043;48.392;-4.472;2022-11-15T07:29:58;14.50;79.58
76239;SHT30;65043;48.392;-4.472;2022-11-15T07:32:23;14.53;79.42
76239;SHT30;65043;48.392;-4.472;2022-11-15T07:34:49;14.50;79.52
76239;SHT30;65043;48.392;-4.472;2022-11-15T07:37:14;14.50;79.92
76239;SHT30;65043;48.392;-4.472;2022-11-15T07:39:40;14.53;79.53
76239;SHT30;65043;48.392;-4.472;2022-11-15T07:42:05;14.50;79.38
76239;SHT30;65043;48.392;-4.472;2022-11-15T07:45:06;14.48;79.25
76239;SHT30;65043;48.392;-4.472;2022-11-15T07:47:32;14.45;79.31
76239;SHT30;65043;48.392;-4.472;2022-11-15T07:49:57;14.45;79.20
76239;SHT30;65043;48.392;-4.472;2022-11-15T07:52:23;14.48;79.28
76239;SHT30;65043;48.392;-4.472;2022-11-15T07:54:48;14.46;78.92
76239;SHT30;65043;48.392;-4.472;2022-11-15T07:57:13;14.46;78.80
76239;SHT30;65043;48.392;-4.472;2022-11-15T07:59:39;14.46;78.75
76239;SHT30;65043;48.392;-4.472;2022-11-15T08:02:05;14.46;78.74
76239;SHT30;65043;48.392;-4.472;2022-11-15T08:04:30;14.45;78.79
76239;SHT30;65043;48.392;-4.472;2022-11-15T08:06:55;14.43;78.77
76239;SHT30;65043;48.392;-4.472;2022-11-15T08:09:22;14.41;78.86
76239;SHT30;65043;48.392;-4.472;2022-11-15T08:11:47;14.43;78.80
76239;SHT30;65043;48.392;-4.472;2022-11-15T08:14:13;14.45;78.78
76239;SHT30;65043;48.392;-4.472;2022-11-15T08:16:38;14.42;78.95
76239;SHT30;65043;48.392;-4.472;2022-11-15T08:19:04;14.39;79.28
76239;SHT30;65043;48.392;-4.472;2022-11-15T08:21:29;14.45;79.55
76239;SHT30;65043;48.392;-4.472;2022-11-15T08:23:55;14.43;79.42
76239;SHT30;65043;48.392;-4.472;2022-11-15T08:26:21;14.42;79.54
76239;SHT30;65043;48.392;-4.472;2022-11-15T08:28:46;14.46;79.71
76239;SHT30;65043;48.392;-4.472;2022-11-15T08:31:14;14.46;79.81
76239;SHT30;65043;48.392;-4.472;2022-11-15T08:33:42;14.50;79.78
76239;SHT30;65043;48.392;-4.472;2022-11-15T08:36:13;14.48;79.65
76239;SHT30;65043;48.392;-4.472;2022-11-15T08:38:39;14.49;79.49
76239;SHT30;65043;48.392;-4.472;2022-11-15T08:41:04;14.56;79.29
76239;SHT30;65043;48.392;-4.472;2022-11-15T08:43:31;14.56;79.32
76239;SHT30;65043;48.392;-4.472;2022-11-15T08:45:57;14.58;79.15
76239;SHT30;65043;48.392;-4.472;2022-11-15T08:48:23;14.58;78.42
76239;SHT30;65043;48.392;-4.472;2022-11-15T08:50:48;14.53;78.39
76239;SHT30;65043;48.392;-4.472;2022-11-15T08:53:14;14.56;78.57
76239;SHT30;65043;48.392;-4.472;2022-11-15T08:55:40;14.56;78.85
76239;SHT30;65043;48.392;-4.472;2022-11-15T08:58:06;14.62;78.71
76239;SHT30;65043;48.392;-4.472;2022-11-15T09:00:32;14.65;78.66
76239;SHT30;65043;48.392;-4.472;2022-11-15T09:02:57;14.65;78.62
76239;SHT30;65043;48.392;-4.472;2022-11-15T09:05:23;14.69;78.51
76239;SHT30;65043;48.392;-4.472;2022-11-15T09:07:52;14.69;78.12
76239;SHT30;65043;48.392;-4.472;2022-11-15T09:10:18;14.70;77.87
76239;SHT30;65043;48.392;-4.472;2022-11-15T09:12:43;14.73;77.79
76239;SHT30;65043;48.392;-4.472;2022-11-15T09:15:09;14.72;78.28
76239;SHT30;65043;48.392;-4.472;2022-11-15T09:17:34;14.77;78.75
76239;SHT30;65043;48.392;-4.472;2022-11-15T09:20:00;14.77;78.61
76239;SHT30;65043;48.392;-4.472;2022-11-15T09:22:26;14.77;78.42
76239;SHT30;65043;48.392;-4.472;2022-11-15T09:24:51;14.77;77.04
76239;SHT30;65043;48.392;-4.472;2022-11-15T09:27:16;14.79;77.09
76239;SHT30;65043;48.392;-4.472;2022-11-15T09:29:42;14.77;76.68
76239;SHT30;65043;48.392;-4.472;2022-11-15T09:32:07;14.80;76.27
76239;SHT30;65043;48.392;-4.472;2022-11-15T09:34:33;14.81;75.78
76239;SHT30;65043;48.392;-4.472;2022-11-15T09:36:58;14.80;75.75
76239;SHT30;65043;48.392;-4.472;2022-11-15T09:39:24;14.79;75.72
76239;SHT30;65043;48.392;-4.472;2022-11-15T09:50:32;14.79;75.25
76239;SHT30;65043;48.392;-4.472;2022-11-15T09:52:59;14.81;74.56
76239;SHT30;65043;48.392;-4.472;2022-11-15T09:55:38;14.79;74.69
76239;SHT30;65043;48.392;-4.472;2022-11-15T09:58:26;14.79;75.08
76239;SHT30;65043;48.392;-4.472;2022-11-15T10:00:53;14.86;75.35
76239;SHT30;65043;48.392;-4.472;2022-11-15T10:03:29;14.90;75.35
76239;SHT30;65043;48.392;-4.472;2022-11-15T10:06:01;14.96;75.58
76239;SHT30;65043;48.392;-4.472;2022-11-15T10:11:17;15.03;75.12
76239;SHT30;65043;48.392;-4.472;2022-11-15T10:13:44;15.06;75.17
76239;SHT30;65043;48.392;-4.472;2022-11-15T10:21:35;15.10;77.08
76239;SHT30;65043;48.392;-4.472;2022-11-15T10:24:11;15.10;77.47
76239;SHT30;65043;48.392;-4.472;2022-11-15T10:26:37;15.12;76.06
76239;SHT30;65043;48.392;-4.472;2022-11-15T10:29:02;15.14;72.60
76239;SHT30;65043;48.392;-4.472;2022-11-15T10:31:28;15.14;71.72
76239;SHT30;65043;48.392;-4.472;2022-11-15T10:34:21;15.07;71.37
76239;SHT30;65043;48.392;-4.472;2022-11-15T10:36:57;15.07;71.40
76239;SHT30;65043;48.392;-4.472;2022-11-15T10:39:23;15.11;72.24
76239;SHT30;65043;48.392;-4.472;2022-11-15T10:41:49;15.18;73.34
76239;SHT30;65043;48.392;-4.472;2022-11-15T10:44:24;15.17;71.92
76239;SHT30;65043;48.392;-4.472;2022-11-15T10:49:26;15.20;73.07
76239;SHT30;65043;48.392;-4.472;2022-11-15T10:52:16;15.24;73.58
76239;SHT30;65043;48.392;-4.472;2022-11-15T10:54:46;15.23;73.52
76239;SHT30;65043;48.392;-4.472;2022-11-15T10:57:22;15.20;74.09
76239;SHT30;65043;48.392;-4.472;2022-11-15T10:59:51;15.24;74.64
76239;SHT30;65043;48.392;-4.472;2022-11-15T11:04:59;15.21;74.73
76239;SHT30;65043;48.392;-4.472;2022-11-15T11:07:28;15.20;74.10
76239;SHT30;65043;48.392;-4.472;2022-11-15T11:10:02;15.17;74.16
76239;SHT30;65043;48.392;-4.472;2022-11-15T11:12:31;15.17;73.80
76239;SHT30;65043;48.392;-4.472;2022-11-15T11:15:09;15.14;74.80
76239;SHT30;65043;48.392;-4.472;2022-11-15T11:20:34;15.00;73.41
76239;SHT30;65043;48.392;-4.472;2022-11-15T11:26:24;14.87;72.03
76239;SHT30;65043;48.392;-4.472;2022-11-15T11:34:56;14.75;72.35
76239;SHT30;65043;48.392;-4.472;2022-11-15T11:50:33;14.63;72.10
76239;SHT30;65043;48.392;-4.472;2022-11-15T11:53:15;14.60;72.71
76239;SHT30;65043;48.392;-4.472;2022-11-15T11:55:51;14.59;69.37
76239;SHT30;65043;48.392;-4.472;2022-11-15T12:00:56;14.43;69.43
76239;SHT30;65043;48.392;-4.472;2022-11-15T12:03:44;14.35;70.64
76239;SHT30;65043;48.392;-4.472;2022-11-15T12:09:00;14.31;70.99
76239;SHT30;65043;48.392;-4.472;2022-11-15T12:11:37;14.35;71.07
76239;SHT30;65043;48.392;-4.472;2022-11-15T12:14:15;14.39;70.38
76239;SHT30;65043;48.392;-4.472;2022-11-15T12:16:42;14.49;70.87
76239;SHT30;65043;48.392;-4.472;2022-11-15T12:19:08;14.62;70.97
76239;SHT30;65043;48.392;-4.472;2022-11-15T12:29:39;14.73;67.73
76239;SHT30;65043;48.392;-4.472;2022-11-15T12:34:50;14.87;68.39
76239;SHT30;65043;48.392;-4.472;2022-11-15T12:40:36;14.91;66.29
76239;SHT30;65043;48.392;-4.472;2022-11-15T12:43:35;15.01;66.39
76239;SHT30;65043;48.392;-4.472;2022-11-15T12:45:51;15.08;65.56
76239;SHT30;65043;48.392;-4.472;2022-11-15T12:51:08;15.06;61.76
76239;SHT30;65043;48.392;-4.472;2022-11-15T12:53:34;15.11;63.81
76239;SHT30;65043;48.392;-4.472;2022-11-15T12:58:58;15.20;63.21
76239;SHT30;65043;48.392;-4.472;2022-11-15T13:04:14;15.35;62.98
76239;SHT30;65043;48.392;-4.472;2022-11-15T13:06:55;15.37;61.42
76239;SHT30;65043;48.392;-4.472;2022-11-15T13:17:10;15.32;59.55
76239;SHT30;65043;48.392;-4.472;2022-11-15T13:19:38;15.24;58.78
76239;SHT30;65043;48.392;-4.472;2022-11-15T13:22:09;15.18;58.17
76239;SHT30;65043;48.392;-4.472;2022-11-15T13:24:54;15.11;58.56
76239;SHT30;65043;48.392;-4.472;2022-11-15T13:27:20;15.11;60.54
76239;SHT30;65043;48.392;-4.472;2022-11-15T13:29:46;15.17;60.42
76239;SHT30;65043;48.392;-4.472;2022-11-15T13:32:13;15.21;60.50
76239;SHT30;65043;48.392;-4.472;2022-11-15T13:34:43;15.21;59.42
76239;SHT30;65043;48.392;-4.472;2022-11-15T13:37:31;15.21;59.92
76239;SHT30;65043;48.392;-4.472;2022-11-15T13:40:26;15.24;60.90
76239;SHT30;65043;48.392;-4.472;2022-11-15T13:42:58;15.24;59.94
76239;SHT30;65043;48.392;-4.472;2022-11-15T13:45:24;15.26;61.00
76239;SHT30;65043;48.392;-4.472;2022-11-15T13:47:57;15.30;60.92
76239;SHT30;65043;48.392;-4.472;2022-11-15T13:50:32;15.34;60.02
76239;SHT30;65043;48.392;-4.472;2022-11-15T13:53:02;15.35;59.99
76239;SHT30;65043;48.392;-4.472;2022-11-15T13:55:30;15.41;60.28
76239;SHT30;65043;48.392;-4.472;2022-11-15T13:58:00;15.51;60.70
76239;SHT30;65043;48.392;-4.472;2022-11-15T14:00:39;15.54;60.37
76239;SHT30;65043;48.392;-4.472;2022-11-15T14:03:22;15.55;59.95
76239;SHT30;65043;48.392;-4.472;2022-11-15T14:06:08;15.52;60.41
76239;SHT30;65043;48.392;-4.472;2022-11-15T14:08:37;15.57;59.84
76239;SHT30;65043;48.392;-4.472;2022-11-15T14:11:21;15.57;60.76
76239;SHT30;65043;48.392;-4.472;2022-11-15T14:16:39;15.59;60.55
76239;SHT30;65043;48.392;-4.472;2022-11-15T14:19:06;15.59;59.77
76239;SHT30;65043;48.392;-4.472;2022-11-15T14:21:32;15.59;60.13
76239;SHT30;65043;48.392;-4.472;2022-11-15T14:24:21;15.55;60.24
76239;SHT30;65043;48.392;-4.472;2022-11-15T14:26:46;15.52;60.09
76239;SHT30;65043;48.392;-4.472;2022-11-15T14:29:30;15.52;60.45
76239;SHT30;65043;48.392;-4.472;2022-11-15T14:32:24;15.49;60.55
76239;SHT30;65043;48.392;-4.472;2022-11-15T14:34:58;15.49;60.80
76239;SHT30;65043;48.392;-4.472;2022-11-15T14:37:28;15.49;59.69
76239;SHT30;65043;48.392;-4.472;2022-11-15T14:39:56;15.42;60.20
76239;SHT30;65043;48.392;-4.472;2022-11-15T14:42:22;15.41;60.13
76239;SHT30;65043;48.392;-4.472;2022-11-15T14:44:48;15.44;61.44
76239;SHT30;65043;48.392;-4.472;2022-11-15T14:47:13;15.47;61.23
76239;SHT30;65043;48.392;-4.472;2022-11-15T14:49:39;15.49;60.61
76239;SHT30;65043;48.392;-4.472;2022-11-15T14:52:29;15.48;59.38
76239;SHT30;65043;48.392;-4.472;2022-11-15T14:54:56;15.51;58.42
76239;SHT30;65043;48.392;-4.472;2022-11-15T14:57:23;15.47;58.88
76239;SHT30;65043;48.392;-4.472;2022-11-15T14:59:49;15.45;59.51
76239;SHT30;65043;48.392;-4.472;2022-11-15T15:02:21;15.45;59.48
76239;SHT30;65043;48.392;-4.472;2022-11-15T15:04:47;15.38;59.58
76239;SHT30;65043;48.392;-4.472;2022-11-15T15:07:13;15.41;60.22
76239;SHT30;65043;48.392;-4.472;2022-11-15T15:09:39;15.38;60.24
76239;SHT30;65043;48.392;-4.472;2022-11-15T15:12:17;15.31;59.20
76239;SHT30;65043;48.392;-4.472;2022-11-15T15:14:44;15.23;58.99
76239;SHT30;65043;48.392;-4.472;2022-11-15T15:17:10;15.21;59.63
76239;SHT30;65043;48.392;-4.472;2022-11-15T15:19:36;15.11;59.88
76239;SHT30;65043;48.392;-4.472;2022-11-15T15:22:01;15.07;60.22
76239;SHT30;65043;48.392;-4.472;2022-11-15T15:24:27;15.04;60.52
76239;SHT30;65043;48.392;-4.472;2022-11-15T15:26:53;15.04;60.82
76239;SHT30;65043;48.392;-4.472;2022-11-15T15:29:18;14.99;61.76
76239;SHT30;65043;48.392;-4.472;2022-11-15T15:31:43;15.00;62.06
76239;SHT30;65043;48.392;-4.472;2022-11-15T15:34:09;14.97;62.28
76239;SHT30;65043;48.392;-4.472;2022-11-15T15:36:34;14.94;61.59
76239;SHT30;65043;48.392;-4.472;2022-11-15T15:39:00;14.94;61.44
76239;SHT30;65043;48.392;-4.472;2022-11-15T15:41:25;14.90;60.50
76239;SHT30;65043;48.392;-4.472;2022-11-15T15:43:51;14.89;60.59
76239;SHT30;65043;48.392;-4.472;2022-11-15T15:46:18;14.87;61.28
76239;SHT30;65043;48.392;-4.472;2022-11-15T15:48:44;14.86;61.53
76239;SHT30;65043;48.392;-4.472;2022-11-15T15:51:10;14.81;61.56
76239;SHT30;65043;48.392;-4.472;2022-11-15T15:53:36;14.81;62.33
76239;SHT30;65043;48.392;-4.472;2022-11-15T15:56:02;14.84;61.96
76239;SHT30;65043;48.392;-4.472;2022-11-15T15:58:27;14.81;61.01
76239;SHT30;65043;48.392;-4.472;2022-11-15T16:00:53;14.77;60.57
76239;SHT30;65043;48.392;-4.472;2022-11-15T16:03:18;14.76;60.35
76239;SHT30;65043;48.392;-4.472;2022-11-15T16:05:44;14.76;60.20
76239;SHT30;65043;48.392;-4.472;2022-11-15T16:08:17;14.72;60.14
76239;SHT30;65043;48.392;-4.472;2022-11-15T16:10:43;14.68;59.77
76239;SHT30;65043;48.392;-4.472;2022-11-15T16:13:08;14.62;60.27
76239;SHT30;65043;48.392;-4.472;2022-11-15T16:15:34;14.59;60.48
76239;SHT30;65043;48.392;-4.472;2022-11-15T16:18:01;14.55;60.79
76239;SHT30;65043;48.392;-4.472;2022-11-15T16:22:55;14.55;61.77
76239;SHT30;65043;48.392;-4.472;2022-11-15T16:25:21;14.53;61.98
76239;SHT30;65043;48.392;-4.472;2022-11-15T16:27:46;14.48;62.02
76239;SHT30;65043;48.392;-4.472;2022-11-15T16:30:17;14.50;62.50
76239;SHT30;65043;48.392;-4.472;2022-11-15T16:32:43;14.49;63.12
76239;SHT30;65043;48.392;-4.472;2022-11-15T16:35:11;14.52;63.76
76239;SHT30;65043;48.392;-4.472;2022-11-15T16:37:40;14.48;64.55
76239;SHT30;65043;48.392;-4.472;2022-11-15T16:40:29;14.45;65.11
76239;SHT30;65043;48.392;-4.472;2022-11-15T16:42:56;14.48;65.39
76239;SHT30;65043;48.392;-4.472;2022-11-15T16:45:23;14.46;65.22
76239;SHT30;65043;48.392;-4.472;2022-11-15T16:47:49;14.41;64.52
76239;SHT30;65043;48.392;-4.472;2022-11-15T16:50:23;14.33;65.05
76239;SHT30;65043;48.392;-4.472;2022-11-15T16:52:54;14.08;66.10
76239;SHT30;65043;48.392;-4.472;2022-11-15T16:55:20;13.84;67.35
76239;SHT30;65043;48.392;-4.472;2022-11-15T16:57:47;13.71;68.61
76239;SHT30;65043;48.392;-4.472;2022-11-15T17:00:13;13.67;69.29
76239;SHT30;65043;48.392;-4.472;2022-11-15T17:02:44;13.63;70.03
76239;SHT30;65043;48.392;-4.472;2022-11-15T17:05:11;13.59;70.29
76239;SHT30;65043;48.392;-4.472;2022-11-15T17:07:37;13.52;70.87
76239;SHT30;65043;48.392;-4.472;2022-11-15T17:10:03;13.49;71.33
76239;SHT30;65043;48.392;-4.472;2022-11-15T17:12:28;13.43;70.01
76239;SHT30;65043;48.392;-4.472;2022-11-15T17:14:55;13.40;70.53
76239;SHT30;65043;48.392;-4.472;2022-11-15T17:17:21;13.38;70.91
76239;SHT30;65043;48.392;-4.472;2022-11-15T17:19:47;13.36;71.18
76239;SHT30;65043;48.392;-4.472;2022-11-15T17:22:12;13.38;71.18
76239;SHT30;65043;48.392;-4.472;2022-11-15T17:24:38;13.33;71.47
76239;SHT30;65043;48.392;-4.472;2022-11-15T17:27:03;13.32;72.06
76239;SHT30;65043;48.392;-4.472;2022-11-15T17:29:29;13.35;72.28
76239;SHT30;65043;48.392;-4.472;2022-11-15T17:31:54;13.36;72.37
76239;SHT30;65043;48.392;-4.472;2022-11-15T17:34:20;13.36;72.30
76239;SHT30;65043;48.392;-4.472;2022-11-15T17:36:46;13.38;72.08
76239;SHT30;65043;48.392;-4.472;2022-11-15T17:39:12;13.38;71.17
76239;SHT30;65043;48.392;-4.472;2022-11-15T17:41:38;13.38;70.83
76239;SHT30;65043;48.392;-4.472;2022-11-15T17:44:03;13.42;70.56